createdAt,value
2022-09-28T00:00:52.689Z,95704.38
2022-09-28T00:03:38.196Z,95708.88
2022-09-28T00:06:25.391Z,95706.72
2022-09-28T00:09:10.969Z,95705.13
2022-09-28T00:11:57.531Z,95705.13
2022-09-28T00:14:44.669Z,95695.09
2022-09-28T00:17:29.933Z,95701.41
2022-09-28T00:20:17.323Z,95704.31
2022-09-28T00:23:02.641Z,95701.66
2022-09-28T00:25:48.070Z,95698.22
2022-09-28T00:28:36.788Z,95693.97
2022-09-28T00:31:23.791Z,95690.56
2022-09-28T00:34:09.430Z,95700.06
2022-09-28T00:36:55.055Z,95686.31
2022-09-28T00:39:41.464Z,95690.00
2022-09-28T00:42:27.603Z,95688.19
2022-09-28T00:45:12.837Z,95703.19
2022-09-28T00:48:00.601Z,95687.38
2022-09-28T00:50:46.552Z,95692.66
2022-09-28T00:53:35.185Z,95699.00
2022-09-28T00:56:23.984Z,95693.94
2022-09-28T00:59:10.134Z,95695.25
2022-09-28T01:01:56.123Z,95693.66
2022-09-28T01:04:41.564Z,95697.34
2022-09-28T01:07:27.759Z,95690.22
2022-09-28T01:10:14.824Z,95682.81
2022-09-28T01:13:00.318Z,95674.09
2022-09-28T01:16:17.594Z,95669.31
2022-09-28T01:19:29.748Z,95665.91
2022-09-28T01:22:34.188Z,95684.06
2022-09-28T01:25:28.916Z,95679.81
2022-09-28T01:28:18.192Z,95677.44
2022-09-28T01:31:15.020Z,95655.00
2022-09-28T01:34:07.775Z,95651.28
2022-09-28T01:36:56.757Z,95642.53
2022-09-28T01:39:47.516Z,95655.91
2022-09-28T01:42:37.351Z,95632.13
2022-09-28T01:45:32.732Z,95626.56
2022-09-28T01:48:26.441Z,95634.66
2022-09-28T01:51:18.865Z,95615.13
2022-09-28T01:54:12.183Z,95625.34
2022-09-28T01:57:16.111Z,95630.56
2022-09-28T02:00:08.859Z,95625.00
2022-09-28T02:03:12.666Z,95628.69
2022-09-28T02:06:08.613Z,95621.03
2022-09-28T02:08:59.519Z,95624.16
2022-09-28T02:12:01.984Z,95630.22
2022-09-28T02:14:50.267Z,95621.28
2022-09-28T02:17:35.639Z,95613.94
2022-09-28T02:20:23.965Z,95609.19
2022-09-28T02:23:10.353Z,95594.97
2022-09-28T02:26:09.061Z,95595.28
2022-09-28T02:28:55.574Z,95582.09
2022-09-28T02:31:42.154Z,95579.47
2022-09-28T02:34:27.806Z,95573.41
2022-09-28T02:37:13.401Z,95574.47
2022-09-28T02:39:58.389Z,95583.41
2022-09-28T02:43:06.498Z,95578.91
2022-09-28T02:46:07.162Z,95565.75
2022-09-28T02:49:29.491Z,95566.56
2022-09-28T02:52:20.971Z,95551.53
2022-09-28T02:55:18.846Z,95549.94
2022-09-28T02:58:07.864Z,95553.38
2022-09-28T03:01:13.435Z,95553.94
2022-09-28T03:04:30.381Z,95544.19
2022-09-28T03:07:29.513Z,95548.16
2022-09-28T03:10:17.678Z,95543.66
2022-09-28T03:13:05.332Z,95541.84
2022-09-28T03:15:51.606Z,95540.50
2022-09-28T03:18:37.135Z,95534.97
2022-09-28T03:21:23.348Z,95535.53
2022-09-28T03:24:11.203Z,95527.63
2022-09-28T03:26:56.832Z,95521.31
2022-09-28T03:29:42.366Z,95519.47
2022-09-28T03:32:28.077Z,95525.78
2022-09-28T03:35:13.856Z,95529.75
2022-09-28T03:37:58.932Z,95528.16
2022-09-28T03:40:58.126Z,95505.50
2022-09-28T03:43:43.830Z,95502.88
2022-09-28T03:46:31.363Z,95499.44
2022-09-28T03:49:22.407Z,95494.41
2022-09-28T03:52:08.358Z,95479.66
2022-09-28T03:54:53.935Z,95479.09
2022-09-28T03:57:39.291Z,95474.59
2022-09-28T04:00:25.276Z,95477.47
2022-09-28T04:03:10.986Z,95463.25
2022-09-28T04:05:56.374Z,95460.88
2022-09-28T04:08:43.102Z,95451.63
2022-09-28T04:11:42.868Z,95446.63
2022-09-28T04:14:34.239Z,95444.78
2022-09-28T04:17:19.669Z,95446.06
2022-09-28T04:20:05.621Z,95446.06
2022-09-28T04:23:15.570Z,95429.72
2022-09-28T04:26:02.834Z,95431.56
2022-09-28T04:29:08.118Z,95428.13
2022-09-28T04:31:55.448Z,95425.50
2022-09-28T04:34:51.904Z,95417.84
2022-09-28T04:37:37.489Z,95422.56
2022-09-28T04:40:22.964Z,95414.13
2022-09-28T04:43:08.940Z,95405.19
2022-09-28T04:46:02.294Z,95405.19
2022-09-28T04:48:54.597Z,95408.88
2022-09-28T04:52:04.923Z,95401.47
2022-09-28T04:54:52.242Z,95399.09
2022-09-28T04:57:37.622Z,95399.09
2022-09-28T05:00:23.261Z,95394.59
2022-09-28T05:03:23.492Z,95391.97
2022-09-28T05:06:23.159Z,95377.75
2022-09-28T05:09:16.294Z,95375.94
2022-09-28T05:12:01.884Z,95377.75
2022-09-28T05:14:48.615Z,95368.25
2022-09-28T05:17:34.278Z,95359.84
2022-09-28T05:20:29.041Z,95359.03
2022-09-28T05:23:17.905Z,95352.97
2022-09-28T05:26:04.389Z,95354.03
2022-09-28T05:28:51.121Z,95360.34
2022-09-28T05:32:16.811Z,95361.91
2022-09-28T05:35:16.054Z,95351.38
2022-09-28T05:38:05.593Z,95336.38
2022-09-28T05:40:52.106Z,95342.44
2022-09-28T05:43:38.783Z,95343.50
2022-09-28T05:46:24.829Z,95333.22
2022-09-28T05:49:10.987Z,95323.47
2022-09-28T05:51:56.615Z,95319.25
2022-09-28T05:54:42.181Z,95316.59
2022-09-28T05:57:27.677Z,95313.97
2022-09-28T06:00:13.232Z,95308.19
2022-09-28T06:03:08.048Z,95303.69
2022-09-28T06:05:54.445Z,95297.66
2022-09-28T06:08:43.044Z,95296.84
2022-09-28T06:12:04.496Z,95292.38
2022-09-28T06:14:58.748Z,95295.81
2022-09-28T06:17:44.630Z,95291.31
2022-09-28T06:20:59.388Z,95281.59
2022-09-28T06:23:50.235Z,95280.78
2022-09-28T06:26:36.902Z,95279.75
2022-09-28T06:29:23.255Z,95270.78
2022-09-28T06:32:08.905Z,95277.66
2022-09-28T06:34:57.130Z,95266.06
2022-09-28T06:37:47.027Z,95268.72
2022-09-28T06:40:34.100Z,95257.38
2022-09-28T06:43:21.042Z,95264.97
2022-09-28T06:46:38.209Z,95258.66
2022-09-28T06:49:55.422Z,95260.25
2022-09-28T06:53:00.788Z,95262.63
2022-09-28T06:56:07.151Z,95262.63
2022-09-28T06:58:52.719Z,95270.03
2022-09-28T07:01:38.151Z,95260.06
2022-09-28T07:04:27.374Z,95266.66
2022-09-28T07:07:51.545Z,95263.47
2022-09-28T07:10:58.834Z,95267.44
2022-09-28T07:14:23.489Z,95258.00
2022-09-28T07:17:14.173Z,95254.84
2022-09-28T07:20:11.480Z,95254.56
2022-09-28T07:23:15.633Z,95250.66
2022-09-28T07:26:25.703Z,95253.56
2022-09-28T07:29:21.896Z,95247.78
2022-09-28T07:32:37.576Z,95252.56
2022-09-28T07:35:50.706Z,95258.88
2022-09-28T07:38:36.264Z,95265.22
2022-09-28T07:41:32.337Z,95266.31
2022-09-28T07:44:19.136Z,95259.97
2022-09-28T07:47:07.346Z,95259.19
2022-09-28T07:50:11.724Z,95260.81
2022-09-28T07:53:22.385Z,95261.13
2022-09-28T07:56:18.310Z,95264.63
2022-09-28T07:59:26.841Z,95273.06
2022-09-28T08:02:41.221Z,95268.31
2022-09-28T08:05:31.206Z,95276.00
2022-09-28T08:08:18.671Z,95276.50
2022-09-28T08:11:07.004Z,95268.31
2022-09-28T08:14:16.124Z,95273.84
2022-09-28T08:17:15.638Z,95275.41
2022-09-28T08:20:26.890Z,95278.84
2022-09-28T08:23:12.225Z,95282.53
2022-09-28T08:25:59.103Z,95290.72
2022-09-28T08:28:45.279Z,95287.81
2022-09-28T08:32:04.287Z,95294.91
2022-09-28T08:34:52.693Z,95292.50
2022-09-28T08:38:11.380Z,95287.78
2022-09-28T08:41:24.926Z,95287.75
2022-09-28T08:44:32.253Z,95308.66
2022-09-28T08:47:47.780Z,95310.00
2022-09-28T08:51:17.259Z,95309.72
2022-09-28T08:54:39.866Z,95307.59
2022-09-28T08:57:45.182Z,95305.25
2022-09-28T09:00:38.782Z,95304.19
2022-09-28T09:03:41.933Z,95309.97
2022-09-28T09:07:07.183Z,95306.53
2022-09-28T09:10:34.010Z,95320.00
2022-09-28T09:13:23.615Z,95322.91
2022-09-28T09:16:29.895Z,95330.81
2022-09-28T09:19:52.669Z,95331.88
2022-09-28T09:23:00.819Z,95333.19
2022-09-28T09:25:59.377Z,95341.63
2022-09-28T09:34:15.499Z,95345.84
2022-09-28T09:37:06.752Z,95344.50
2022-09-28T09:40:38.403Z,95346.06
2022-09-28T09:43:55.994Z,95341.25
2022-09-28T09:47:30.706Z,95352.84
2022-09-28T09:50:47.824Z,95346.47
2022-09-28T09:53:43.781Z,95347.50
2022-09-28T09:56:43.555Z,95352.25
2022-09-28T09:59:40.060Z,95346.13
2022-09-28T10:02:35.326Z,95335.50
2022-09-28T10:05:37.051Z,95346.09
2022-09-28T10:08:24.281Z,95364.38
2022-09-28T10:11:19.170Z,95358.56
2022-09-28T10:14:18.119Z,95358.84
2022-09-28T10:17:12.104Z,95364.91
2022-09-28T10:20:16.994Z,95367.53
2022-09-28T10:23:36.729Z,95371.72
2022-09-28T10:26:30.464Z,95371.44
2022-09-28T10:29:20.852Z,95374.81
2022-09-28T10:32:26.043Z,95378.25
2022-09-28T10:35:25.209Z,95375.59
2022-09-28T10:38:18.681Z,95375.31
2022-09-28T10:41:17.305Z,95377.47
2022-09-28T10:44:18.757Z,95376.41
2022-09-28T10:47:22.112Z,95372.22
2022-09-28T10:50:21.147Z,95373.84
2022-09-28T10:53:12.863Z,95370.44
2022-09-28T10:56:28.903Z,95378.13
2022-09-28T10:59:25.246Z,95378.66
2022-09-28T11:02:36.225Z,95378.09
2022-09-28T11:05:39.961Z,95381.19
2022-09-28T11:08:29.911Z,95390.13
2022-09-28T11:11:21.504Z,95375.44
2022-09-28T11:14:38.394Z,95369.94
2022-09-28T11:17:30.048Z,95374.22
2022-09-28T11:20:28.496Z,95372.94
2022-09-28T11:23:30.156Z,95374.06
2022-09-28T11:26:21.892Z,95371.03
2022-09-28T11:29:20.990Z,95378.91
2022-09-28T11:32:16.133Z,95377.56
2022-09-28T11:35:51.912Z,95375.19
2022-09-28T11:39:27.662Z,95384.34
2022-09-28T11:42:29.249Z,95385.25
2022-09-28T11:45:47.173Z,95394.41
2022-09-28T11:48:56.575Z,95395.78
2022-09-28T11:51:45.538Z,95398.53
2022-09-28T11:54:48.473Z,95401.91
2022-09-28T11:57:40.895Z,95405.16
2022-09-28T12:00:28.055Z,95400.19
2022-09-28T12:03:28.942Z,95405.31
2022-09-28T12:06:18.422Z,95411.94
2022-09-28T12:09:14.120Z,95407.72
2022-09-28T12:12:32.756Z,95405.88
2022-09-28T12:16:17.100Z,95409.88
2022-09-28T12:19:13.970Z,95407.56
2022-09-28T12:22:15.831Z,95412.84
2022-09-28T12:25:03.812Z,95415.41
2022-09-28T12:28:03.501Z,95408.44
2022-09-28T12:30:49.993Z,95415.22
2022-09-28T12:33:37.308Z,95400.41
2022-09-28T12:36:45.452Z,95401.97
2022-09-28T12:40:05.650Z,95409.38
2022-09-28T12:43:03.377Z,95410.16
2022-09-28T12:46:11.881Z,95401.44
2022-09-28T12:52:31.028Z,95406.38
2022-09-28T12:55:24.697Z,95412.97
2022-09-28T12:58:25.414Z,95418.50
2022-09-28T13:01:42.512Z,95432.56
2022-09-28T13:04:58.753Z,95430.13
2022-09-28T13:08:21.196Z,95428.78
2022-09-28T13:11:22.415Z,95429.25
2022-09-28T13:14:36.050Z,95433.44
2022-09-28T13:17:37.819Z,95433.09
2022-09-28T13:21:05.646Z,95433.31
2022-09-28T13:24:00.788Z,95440.13
2022-09-28T13:26:59.761Z,95447.81
2022-09-28T13:29:46.607Z,95439.06
2022-09-28T13:32:36.012Z,95448.59
2022-09-28T17:48:57.599Z,95611.00
2022-09-28T17:51:42.870Z,95603.00
2022-09-28T17:54:28.485Z,95608.47
2022-09-28T17:57:13.825Z,95618.47
2022-09-28T17:59:59.413Z,95620.81
2022-09-28T18:02:45.490Z,95620.22
2022-09-28T18:05:31.637Z,95618.31
2022-09-28T18:08:21.522Z,95629.34
2022-09-28T18:11:07.341Z,95626.97
2022-09-28T18:13:52.680Z,95621.69
2022-09-28T18:16:38.340Z,95628.28
2022-09-28T18:19:25.004Z,95626.88
2022-09-28T18:22:12.086Z,95626.56
2022-09-28T18:24:57.557Z,95626.81
2022-09-28T18:27:43.240Z,95620.38
2022-09-28T18:30:29.088Z,95629.88
2022-09-28T18:33:15.086Z,95630.06
2022-09-28T18:36:00.770Z,95634.50
2022-09-28T18:38:46.544Z,95627.59
2022-09-28T18:41:32.565Z,95641.31
2022-09-28T18:44:18.046Z,95650.84
2022-09-28T18:47:03.608Z,95655.16
2022-09-28T18:49:50.996Z,95667.03
2022-09-28T18:52:37.661Z,95667.53
2022-09-28T18:55:23.181Z,95666.63
2022-09-28T18:58:10.493Z,95678.44
2022-09-28T19:01:13.533Z,95678.88
2022-09-28T19:04:05.235Z,95678.47
2022-09-28T19:06:52.406Z,95683.09
2022-09-28T19:09:40.517Z,95678.81
2022-09-28T19:12:25.980Z,95677.38
2022-09-28T19:15:11.508Z,95674.41
2022-09-28T19:17:57.191Z,95672.19
2022-09-28T19:20:44.576Z,95675.78
2022-09-28T19:23:30.065Z,95678.94
2022-09-28T19:26:24.309Z,95684.19
2022-09-28T19:29:10.880Z,95678.63
2022-09-28T19:31:57.099Z,95685.97
2022-09-28T19:34:43.026Z,95686.22
2022-09-28T19:37:28.367Z,95692.81
2022-09-28T19:40:13.848Z,95696.50
2022-09-28T19:42:59.803Z,95698.09
2022-09-28T19:45:45.194Z,95704.88
2022-09-28T19:48:32.424Z,95708.78
2022-09-28T19:51:19.605Z,95712.69
2022-09-28T19:54:06.220Z,95706.63
2022-09-28T19:56:53.235Z,95709.25
2022-09-28T19:59:38.834Z,95713.41
2022-09-28T20:02:24.182Z,95709.66
2022-09-28T20:05:09.579Z,95719.66
2022-09-28T20:07:55.047Z,95723.31
2022-09-28T20:10:48.093Z,95732.25
2022-09-28T20:13:36.381Z,95726.97
2022-09-28T20:16:24.475Z,95721.72
2022-09-28T20:19:09.704Z,95723.06
2022-09-28T20:21:58.556Z,95727.31
2022-09-28T20:24:44.270Z,95725.44
2022-09-28T20:27:30.308Z,95726.00
2022-09-28T20:30:15.865Z,95732.88
2022-09-28T20:33:01.752Z,95736.09
2022-09-28T20:35:47.153Z,95745.53
2022-09-28T20:38:33.358Z,95742.44
2022-09-28T20:41:21.925Z,95744.81
2022-09-28T20:44:07.558Z,95752.47
2022-09-28T20:46:53.193Z,95756.28
2022-09-28T20:49:38.739Z,95754.25
2022-09-28T20:52:24.459Z,95752.72
2022-09-28T20:55:10.012Z,95754.66
2022-09-28T20:57:55.425Z,95759.41
2022-09-28T21:00:40.856Z,95757.34
2022-09-28T21:03:26.229Z,95764.78
2022-09-28T21:06:12.481Z,95762.13
2022-09-28T21:08:58.634Z,95760.28
2022-09-28T21:11:44.243Z,95767.41
2022-09-28T21:14:29.898Z,95763.97
2022-09-28T21:17:15.229Z,95761.88
2022-09-28T21:20:00.705Z,95761.06
2022-09-28T21:22:46.096Z,95766.34
2022-09-28T21:25:31.555Z,95774.25
2022-09-28T21:28:17.735Z,95774.81
2022-09-28T21:31:06.579Z,95773.53
2022-09-28T21:33:52.091Z,95775.44
2022-09-28T21:36:37.425Z,95785.25
2022-09-28T21:39:22.673Z,95787.38
2022-09-28T21:42:08.336Z,95796.41
2022-09-28T21:44:56.331Z,95799.56
2022-09-28T21:47:52.750Z,95805.41
2022-09-28T21:50:38.046Z,95790.69
2022-09-28T21:53:29.613Z,95792.06
2022-09-28T21:56:14.871Z,95793.94
2022-09-28T21:59:01.390Z,95793.47
2022-09-28T22:01:48.203Z,95794.81
2022-09-28T22:04:33.685Z,95792.75
2022-09-28T22:07:19.129Z,95792.50
2022-09-28T22:10:05.919Z,95800.97
2022-09-28T22:12:51.362Z,95795.19
2022-09-28T22:15:36.861Z,95804.69
2022-09-28T22:18:22.213Z,95799.16
2022-09-28T22:21:14.459Z,95800.19
2022-09-28T22:24:02.011Z,95797.81
2022-09-28T22:26:47.069Z,95797.03
2022-09-28T22:29:32.594Z,95799.66
2022-09-28T22:32:18.247Z,95798.84
2022-09-28T22:35:03.800Z,95799.91
2022-09-28T22:37:49.061Z,95799.09
2022-09-28T22:40:34.333Z,95799.66
2022-09-28T22:43:20.971Z,95797.81
2022-09-28T22:46:07.847Z,95798.63
2022-09-28T22:48:58.503Z,95803.91
2022-09-28T22:51:44.271Z,95803.91
2022-09-28T22:54:30.315Z,95800.72
2022-09-28T22:57:15.995Z,95810.22
2022-09-28T23:00:01.812Z,95802.00
2022-09-28T23:02:47.223Z,95807.22
2022-09-28T23:05:32.661Z,95820.88
2022-09-28T23:08:17.933Z,95816.63
2022-09-28T23:11:03.780Z,95818.22
2022-09-28T23:13:52.997Z,95807.69
2022-09-28T23:16:38.363Z,95809.53
2022-09-28T23:19:23.846Z,95805.56
2022-09-28T23:22:09.325Z,95815.53
2022-09-28T23:24:54.699Z,95811.31
2022-09-28T23:27:40.276Z,95819.22
2022-09-28T23:30:26.289Z,95817.56
2022-09-28T23:33:16.026Z,95809.28
2022-09-28T23:36:01.901Z,95809.13
2022-09-28T23:38:47.275Z,95815.91
2022-09-28T23:41:32.521Z,95809.31
2022-09-28T23:44:18.057Z,95808.50
2022-09-28T23:47:03.576Z,95808.75
2022-09-28T23:49:48.934Z,95802.44
2022-09-28T23:52:34.990Z,95802.44
2022-09-28T23:55:20.402Z,95799.81
2022-09-28T23:58:05.994Z,95806.66
